Bjelasnica, Bosnia and Herzegovina

4:45 PM CET on December 03, 2016 (GMT +0100)
Jahorina | | Change Station

Elev 5039 ft 43.74 °N, 18.57 °E | Updated 44 minutes ago

Partly Cloudy
Partly Cloudy
27.7 °F
Feels Like 28 °F
N
0.9
Wind Variable Wind from SW
Gusts 2.0 mph

Today
High -- | Low -- °F
--% Chance of Precip.
Yesterday
High -- | Low -- °F
Precip. -- in
Pressure 30.21 in
Visibility -9999.0 miles
Clouds
Windchill 28 °F
Dew Point 12 °F
Humidity 51%
Rainfall 0.00 in
Snow Depth Not available.
7:03 AM 4:10 PM
Waxing Crescent, 15% visible
METAR LQSA 031530Z VRB01KT CAVOK 03/M03 Q1023 NOSIG
Pressure 30.21 in
Visibility -9999.0 miles
Clouds
Windchill 28 °F
Dew Point 12 °F
Humidity 51%
Rainfall 0.00 in
Snow Depth Not available.
7:03 AM 4:10 PM
Waxing Crescent, 15% visible
METAR LQSA 031530Z VRB01KT CAVOK 03/M03 Q1023 NOSIG

10-Day Weather Forecast

No radar image for this location.
×

Almanac

Astronomy

Dec. 03, 2016 Rise Set
Actual Time
Civil Twilight
Nautical Twilight
Astronomical Twilight
Moon
Length of Visible Light
Length of Day
Tomorrow will be .
, % of the Moon is Illuminated

Today's Extremes

Country Highs Country Lows

Community

WunderPhotos

Upload Photos

1,955,427 photos uploaded!

WunderBlog® & News

Nearby

Air Quality

  Air Quality AQ Index Pollutant
Not available.

Snow Depth

Station Depth Elevation

Earthquake Activity

City Distance Mag. Time & Date
Minimum magnitude displayed is 2.5.

Coastal Water Temperatures

Place Temperature

Stations

Nearby Weather Stations

Station Location Temp. Windchill Dew Point Humidity Wind Precip. Elev Updated Type